Time;durP1;ratioP1;P1;durP2;ratioP2;P2;SDS_P1;SDS_P2;PMS_P1;PMS_P2;Temp;Humidity;BMP_temperature;BMP_pressure;BME280_temperature;BME280_humidity;BME280_pressure;Samples;Min_cycle;Max_cycle;Signal;HPM_P1;HPM_P2
2021/12/18 00:00:04;;;;;;;5.07;3.30;;;;;;;7.64;0.00;60892.56;4714159;29;20060;-87
2021/12/18 00:02:43;;;;;;;5.03;3.55;;;;;;;-145.06;0.00;60892.56;4713353;29;20040;-87
2021/12/18 00:05:22;;;;;;;5.32;3.38;;;;;;;-145.06;0.00;60892.56;4716884;29;20032;-87
2021/12/18 00:08:01;;;;;;;5.25;3.55;;;;;;;-145.06;0.00;60892.56;4723774;29;20033;-87
2021/12/18 00:10:40;;;;;;;4.82;3.70;;;;;;;7.62;0.00;60892.56;4707846;29;20383;-88
2021/12/18 00:13:19;;;;;;;4.35;3.28;;;;;;;-145.06;0.00;60892.56;4715320;29;20037;-87
2021/12/18 00:15:58;;;;;;;5.60;3.80;;;;;;;-145.06;0.00;60892.56;4721695;29;20055;-88
2021/12/18 00:18:37;;;;;;;5.40;3.50;;;;;;;-145.06;0.00;60892.56;4713493;29;20036;-87
2021/12/18 00:21:19;;;;;;;5.50;3.60;;;;;;;-145.06;0.00;60892.56;4714122;29;20033;-87
2021/12/18 00:23:59;;;;;;;5.20;3.30;;;;;;;-145.06;0.00;60892.56;4710574;29;20434;-87
2021/12/18 00:26:38;;;;;;;5.10;3.47;;;;;;;-145.06;0.00;60892.56;4714009;29;20557;-87
2021/12/18 00:29:17;;;;;;;4.07;3.10;;;;;;;-145.06;0.00;60892.56;4697512;29;20286;-87
2021/12/18 00:31:57;;;;;;;4.40;3.38;;;;;;;8.08;0.00;60892.56;4706257;29;20033;-86
2021/12/18 00:34:39;;;;;;;;;;;;;;;-145.06;0.00;60892.56;4719898;29;20041;-86
2021/12/18 00:37:17;;;;;;;3.08;2.38;;;;;;;7.60;0.00;60892.56;4733296;29;19915;-88
2021/12/18 00:39:59;;;;;;;3.55;2.55;;;;;;;-145.06;0.00;60892.56;4712564;29;20363;-87
2021/12/18 00:42:43;;;;;;;6.03;3.67;;;;;;;-145.06;0.00;60892.56;4713548;29;20045;-88
2021/12/18 00:45:23;;;;;;;4.25;3.00;;;;;;;-145.06;0.00;60892.56;4713992;29;20033;-87
2021/12/18 00:48:02;;;;;;;8.18;3.85;;;;;;;-145.06;0.00;60892.56;4715235;29;20040;-87
2021/12/18 00:50:41;;;;;;;4.93;3.35;;;;;;;-145.06;0.00;60892.56;4732852;29;20040;-87
2021/12/18 00:53:20;;;;;;;6.53;3.55;;;;;;;-145.06;0.00;60892.56;4718107;29;20032;-87
2021/12/18 00:56:02;;;;;;;5.80;3.85;;;;;;;-145.06;0.00;60892.56;4714168;29;20376;-87
2021/12/18 00:58:41;;;;;;;6.05;3.97;;;;;;;-145.06;0.00;60892.56;4712606;29;20474;-87
2021/12/18 01:01:22;;;;;;;5.82;4.13;;;;;;;-145.06;0.00;60892.56;4720956;29;20625;-86
2021/12/18 01:04:01;;;;;;;6.30;3.95;;;;;;;-145.06;0.00;60892.56;4712008;29;20048;-87
2021/12/18 01:06:40;;;;;;;6.22;3.70;;;;;;;-145.06;0.00;60892.56;4721708;29;20515;-87
2021/12/18 01:09:26;;;;;;;4.83;3.53;;;;;;;-145.06;0.00;60892.56;4720964;29;20068;-87
2021/12/18 01:12:07;;;;;;;5.50;3.35;;;;;;;-145.06;0.00;60892.56;4726096;29;20044;-87
2021/12/18 01:15:03;;;;;;;5.32;3.60;;;;;;;-145.06;0.00;60892.56;4722367;29;20032;-87
2021/12/18 01:23:39;;;;;;;5.93;3.28;;;;;;;-145.06;0.00;60892.56;4726507;29;20025;-87
2021/12/18 01:26:18;;;;;;;6.80;3.67;;;;;;;7.01;0.00;60892.56;4712592;29;20478;-87
2021/12/18 01:28:57;;;;;;;5.38;3.53;;;;;;;-145.06;0.00;60892.56;4710692;29;20491;-88
2021/12/18 01:31:36;;;;;;;4.50;3.03;;;;;;;-145.06;0.00;60892.56;4713333;29;20029;-87
2021/12/18 01:34:15;;;;;;;6.18;3.85;;;;;;;7.44;0.00;60892.56;4711053;29;20775;-88
2021/12/18 01:36:54;;;;;;;5.43;3.80;;;;;;;-145.06;0.00;60892.56;4738183;29;20028;-87
2021/12/18 01:39:33;;;;;;;6.13;3.67;;;;;;;-145.06;0.00;60892.56;4711990;29;20025;-87
2021/12/18 01:43:25;;;;;;;6.20;3.67;;;;;;;-145.06;0.00;60892.56;4726904;29;20272;-86
2021/12/18 01:46:04;;;;;;;5.00;3.28;;;;;;;-145.06;0.00;60892.56;4723776;29;20264;-87
2021/12/18 01:54:23;;;;;;;4.97;3.33;;;;;;;-145.06;0.00;60892.56;4726503;29;20798;-87
2021/12/18 01:57:02;;;;;;;5.78;3.28;;;;;;;-145.06;0.00;60892.56;4712881;29;20036;-87
2021/12/18 01:59:47;;;;;;;4.95;3.40;;;;;;;-145.06;0.00;60892.56;4706864;29;20028;-87
2021/12/18 02:02:26;;;;;;;5.25;3.38;;;;;;;-145.06;0.00;60892.56;4723375;29;20028;-87
2021/12/18 02:05:06;;;;;;;4.32;3.20;;;;;;;-145.06;0.00;60892.56;4723952;29;20032;-86
2021/12/18 02:07:46;;;;;;;;;;;;;;;-145.06;0.00;60892.56;4714475;29;20033;-88
2021/12/18 02:10:28;;;;;;;5.10;2.90;;;;;;;-145.06;0.00;60892.56;4721870;29;19916;-87
2021/12/18 02:14:05;;;;;;;4.55;3.10;;;;;;;-145.06;0.00;60892.56;4711990;29;20079;-87
2021/12/18 02:22:04;;;;;;;4.63;3.28;;;;;;;-145.06;0.00;60892.56;4725749;29;20060;-87
2021/12/18 02:24:43;;;;;;;5.20;3.15;;;;;;;-145.06;0.00;60892.56;4712125;29;20037;-86
2021/12/18 02:27:22;;;;;;;5.13;3.40;;;;;;;-145.06;0.00;60892.56;4712001;29;20486;-87
2021/12/18 02:30:04;;;;;;;5.63;3.85;;;;;;;6.54;0.00;60892.56;4711148;29;20037;-87
2021/12/18 02:32:43;;;;;;;5.93;3.72;;;;;;;6.53;0.00;60892.56;4723160;29;20478;-86
2021/12/18 02:35:29;;;;;;;8.27;4.37;;;;;;;10.68;0.00;60892.56;4711706;29;20036;-87
2021/12/18 02:38:18;;;;;;;5.70;3.67;;;;;;;-145.06;0.00;60892.56;4711105;29;20042;-86
2021/12/18 02:41:09;;;;;;;5.50;3.47;;;;;;;6.79;0.00;60892.56;4712113;29;20021;-86
2021/12/18 02:43:48;;;;;;;5.60;3.55;;;;;;;-145.06;0.00;60892.56;4720993;29;20360;-87
2021/12/18 02:46:27;;;;;;;6.32;4.07;;;;;;;-145.06;0.00;60892.56;4711873;29;20028;-86
2021/12/18 02:49:10;;;;;;;5.97;4.22;;;;;;;-145.06;0.00;60892.56;4711316;29;20115;-88
2021/12/18 02:51:48;;;;;;;6.75;4.15;;;;;;;-145.06;0.00;60892.56;4711993;29;20032;-87
2021/12/18 02:54:27;;;;;;;6.40;4.50;;;;;;;-145.06;0.00;60892.56;4711625;29;20380;-88
2021/12/18 02:57:06;;;;;;;8.47;5.17;;;;;;;6.70;0.00;60892.56;4705676;29;20033;-87
2021/12/18 02:59:49;;;;;;;6.60;4.18;;;;;;;6.87;0.00;60892.56;4725208;29;20534;-87
2021/12/18 03:02:33;;;;;;;7.00;4.45;;;;;;;-145.06;0.00;60892.56;4719647;29;20041;-87
2021/12/18 03:05:19;;;;;;;7.95;4.82;;;;;;;-145.06;0.00;60892.56;4716345;29;20036;-87
2021/12/18 03:08:07;;;;;;;8.25;5.03;;;;;;;6.91;0.00;60892.56;4735645;29;20032;-87
2021/12/18 03:25:11;;;;;;;7.65;4.43;;;;;;;-145.06;0.00;60892.56;4736115;29;20036;-87
2021/12/18 03:27:52;;;;;;;7.60;5.20;;;;;;;-145.06;0.00;60892.56;4714293;29;20025;-87
2021/12/18 03:30:35;;;;;;;7.63;5.00;;;;;;;-145.06;0.00;60892.56;4728377;29;20029;-87
2021/12/18 03:33:14;;;;;;;8.75;5.30;;;;;;;7.09;0.00;60892.56;4728133;29;20040;-87
2021/12/18 03:35:53;;;;;;;9.60;5.20;;;;;;;-145.06;0.00;60892.56;4729132;29;20044;-86
2021/12/18 03:38:32;;;;;;;7.38;4.85;;;;;;;-145.06;0.00;60892.56;4728339;29;20029;-88
2021/12/18 03:41:11;;;;;;;6.93;5.10;;;;;;;-145.06;0.00;60892.56;4713450;29;20116;-88
2021/12/18 03:43:50;;;;;;;7.78;5.05;;;;;;;-145.06;0.00;60892.56;4714524;29;20123;-87
2021/12/18 03:46:29;;;;;;;8.57;5.63;;;;;;;-145.06;0.00;60892.56;4716000;29;20043;-87
2021/12/18 03:49:08;;;;;;;8.85;5.47;;;;;;;-145.06;0.00;60892.56;4721675;29;20032;-87
2021/12/18 03:51:47;;;;;;;8.77;5.57;;;;;;;187.52;0.00;60892.56;4717395;29;20036;-87
2021/12/18 03:54:26;;;;;;;8.98;6.30;;;;;;;-145.06;0.00;60892.56;4721808;29;20040;-87
2021/12/18 03:57:05;;;;;;;9.30;6.13;;;;;;;-145.06;0.00;60892.56;4719575;29;20036;-88
2021/12/18 03:59:45;;;;;;;8.55;5.97;;;;;;;-145.06;0.00;60892.56;4720962;29;20013;-87
2021/12/18 04:02:24;;;;;;;9.97;6.57;;;;;;;-145.06;0.00;60892.56;4753122;29;20249;-87
2021/12/18 04:05:03;;;;;;;9.93;6.27;;;;;;;-145.06;0.00;60892.56;4733191;29;20112;-87
2021/12/18 04:07:45;;;;;;;8.88;5.53;;;;;;;-145.06;0.00;60892.56;4729166;29;20028;-88
2021/12/18 04:10:23;;;;;;;8.55;5.93;;;;;;;-145.06;0.00;60892.56;4718330;29;20040;-86
2021/12/18 04:13:04;;;;;;;9.27;6.13;;;;;;;-145.06;0.00;60892.56;4712750;29;20037;-87
2021/12/18 04:15:42;;;;;;;;;;;;;;;-145.06;0.00;60892.56;4713247;29;20123;-87
2021/12/18 04:18:22;;;;;;;8.53;5.77;;;;;;;-145.06;0.00;60892.56;4734503;29;20001;-87
2021/12/18 04:21:01;;;;;;;9.23;5.97;;;;;;;-145.06;0.00;60892.56;4713434;29;20036;-88
2021/12/18 04:23:40;;;;;;;9.73;6.80;;;;;;;-145.06;0.00;60892.56;4726322;29;20036;-87
2021/12/18 04:26:19;;;;;;;9.98;6.45;;;;;;;-145.06;0.00;60892.56;4714984;29;20024;-88
2021/12/18 04:28:58;;;;;;;11.32;6.95;;;;;;;-145.06;0.00;60892.56;4721658;29;20076;-87
2021/12/18 04:31:38;;;;;;;11.07;6.50;;;;;;;-145.06;0.00;60892.56;4713834;29;20064;-87
2021/12/18 04:34:17;;;;;;;;;;;;;;;-145.06;0.00;60892.56;4729664;29;20044;-86
2021/12/18 04:36:56;;;;;;;8.97;6.07;;;;;;;-145.06;0.00;60892.56;4729490;29;19907;-86
2021/12/18 04:39:35;;;;;;;9.65;6.15;;;;;;;-145.06;0.00;60892.56;4695683;29;20265;-87
2021/12/18 04:42:14;;;;;;;9.05;6.45;;;;;;;-145.06;0.00;60892.56;4718205;29;20502;-88
2021/12/18 04:44:53;;;;;;;10.00;7.03;;;;;;;-145.06;0.00;60892.56;4717791;29;20036;-87
2021/12/18 04:47:33;;;;;;;10.27;6.90;;;;;;;-145.06;0.00;60892.56;4713707;29;20040;-86
2021/12/18 04:50:12;;;;;;;8.65;6.22;;;;;;;7.38;0.00;60892.56;4713218;29;20312;-87
2021/12/18 04:52:51;;;;;;;9.23;6.53;;;;;;;-145.06;0.00;60892.56;4735116;29;20032;-87
2021/12/18 04:55:30;;;;;;;10.20;7.00;;;;;;;-145.06;0.00;60892.56;4735581;29;20028;-87
2021/12/18 04:58:09;;;;;;;10.20;6.47;;;;;;;-145.06;0.00;60892.56;4715805;29;20387;-86
2021/12/18 05:00:48;;;;;;;11.93;7.10;;;;;;;-145.06;0.00;60892.56;4728071;29;20115;-87
2021/12/18 05:03:27;;;;;;;9.70;6.67;;;;;;;-145.06;0.00;60892.56;4726807;29;20036;-87
2021/12/18 05:06:06;;;;;;;10.87;6.87;;;;;;;-145.06;0.00;60892.56;4722022;29;20112;-87
2021/12/18 05:08:45;;;;;;;10.27;6.97;;;;;;;-145.06;0.00;60892.56;4721858;29;20068;-87
2021/12/18 05:11:24;;;;;;;12.17;7.40;;;;;;;-145.06;0.00;60892.56;4718818;29;20068;-87
2021/12/18 05:14:03;;;;;;;10.40;6.90;;;;;;;-145.06;0.00;60892.56;4726270;29;20036;-87
2021/12/18 05:16:42;;;;;;;10.50;6.97;;;;;;;187.52;0.00;60892.56;4727106;29;20376;-87
2021/12/18 05:19:21;;;;;;;10.37;5.90;;;;;;;-145.06;0.00;60892.56;4711828;29;20025;-87
2021/12/18 05:22:00;;;;;;;9.82;6.32;;;;;;;-145.06;0.00;60892.56;4725469;29;20301;-87
2021/12/18 05:24:38;;;;;;;10.30;6.47;;;;;;;-145.06;0.00;60892.56;4731600;29;20032;-87
2021/12/18 05:27:17;;;;;;;9.15;6.35;;;;;;;-145.06;0.00;60892.56;4720345;29;20284;-87
2021/12/18 05:29:56;;;;;;;12.43;6.73;;;;;;;-145.06;0.00;60892.56;4725836;29;20124;-87
2021/12/18 05:32:35;;;;;;;10.77;6.87;;;;;;;-145.06;0.00;60892.56;4702328;29;20272;-85
2021/12/18 05:35:16;;;;;;;11.10;7.00;;;;;;;-145.06;0.00;60892.56;4717143;29;20131;-87
2021/12/18 05:38:04;;;;;;;11.02;7.03;;;;;;;-145.06;0.00;60892.56;4722565;29;20628;-88
2021/12/18 05:40:43;;;;;;;12.43;7.45;;;;;;;8.08;0.00;60892.56;4725767;29;20040;-88
2021/12/18 05:43:22;;;;;;;10.35;6.38;;;;;;;-145.06;0.00;60892.56;4712849;29;20036;-87
2021/12/18 05:46:00;;;;;;;9.65;6.15;;;;;;;-145.06;0.00;60892.56;4726124;29;20032;-88
2021/12/18 05:48:39;;;;;;;11.85;7.15;;;;;;;-145.06;0.00;60892.56;4711847;29;20063;-87
2021/12/18 05:51:19;;;;;;;13.13;8.07;;;;;;;-145.06;0.00;60892.56;4723784;29;20116;-86
2021/12/18 05:53:58;;;;;;;13.18;7.45;;;;;;;-145.06;0.00;60892.56;4729498;29;20292;-88
2021/12/18 05:56:37;;;;;;;12.55;7.07;;;;;;;-145.06;0.00;60892.56;4712268;29;20490;-87
2021/12/18 05:59:17;;;;;;;13.80;7.65;;;;;;;-145.06;0.00;60892.56;4707752;29;20041;-87
2021/12/18 06:01:56;;;;;;;;;;;;;;;-145.06;0.00;60892.56;4730340;29;20044;-87
2021/12/18 06:04:35;;;;;;;12.18;6.53;;;;;;;-145.06;0.00;60892.56;4713777;29;19919;-88
2021/12/18 06:07:29;;;;;;;13.20;7.53;;;;;;;7.25;0.00;60892.56;4709492;29;20040;-87
2021/12/18 06:10:08;;;;;;;12.98;6.95;;;;;;;-145.06;0.00;60892.56;4715643;29;20056;-87
2021/12/18 06:12:48;;;;;;;12.80;7.72;;;;;;;-145.06;0.00;60892.56;4726038;29;20044;-88
2021/12/18 06:15:27;;;;;;;12.45;7.38;;;;;;;-145.06;0.00;60892.56;4726453;29;20044;-86
2021/12/18 06:18:06;;;;;;;12.27;7.25;;;;;;;-145.06;0.00;60892.56;4712136;29;20024;-88
2021/12/18 06:20:45;;;;;;;13.07;7.45;;;;;;;-145.06;0.00;60892.56;4716290;29;20029;-86
2021/12/18 06:23:24;;;;;;;15.00;8.05;;;;;;;-145.06;0.00;60892.56;4718230;29;20167;-88
2021/12/18 06:26:03;;;;;;;12.40;7.07;;;;;;;-145.06;0.00;60892.56;4711962;29;20044;-87
2021/12/18 06:28:42;;;;;;;11.63;6.87;;;;;;;-145.06;0.00;60892.56;4713606;29;20037;-87
2021/12/18 06:31:21;;;;;;;10.60;6.38;;;;;;;-145.06;0.00;60892.56;4721985;29;20056;-87
2021/12/18 06:34:00;;;;;;;12.40;6.88;;;;;;;-145.06;0.00;60892.56;4715939;29;20044;-88
2021/12/18 06:36:39;;;;;;;11.68;6.80;;;;;;;-145.06;0.00;60892.56;4726715;29;20044;-88
2021/12/18 06:39:18;;;;;;;13.30;6.87;;;;;;;-145.06;0.00;60892.56;4725646;29;20044;-88
2021/12/18 06:41:57;;;;;;;12.23;7.23;;;;;;;-145.06;0.00;60892.56;4712312;29;20067;-87
2021/12/18 06:44:36;;;;;;;11.18;6.10;;;;;;;-145.06;0.00;60892.56;4723752;29;20669;-88
2021/12/18 06:47:15;;;;;;;11.18;7.00;;;;;;;8.08;0.00;60892.56;4727217;29;20040;-87
2021/12/18 06:49:54;;;;;;;12.50;7.27;;;;;;;-145.06;0.00;60892.56;4715118;29;20041;-87
2021/12/18 06:52:33;;;;;;;12.23;6.82;;;;;;;-145.06;0.00;60892.56;4714710;29;20368;-86
2021/12/18 06:55:13;;;;;;;11.15;6.38;;;;;;;-145.06;0.00;60892.56;4709422;29;20491;-87
2021/12/18 06:57:52;;;;;;;10.63;5.63;;;;;;;-145.06;0.00;60892.56;4714516;29;20032;-87
2021/12/18 07:00:31;;;;;;;12.40;6.80;;;;;;;-145.06;0.00;60892.56;4723169;29;20032;-87
2021/12/18 07:03:11;;;;;;;15.25;6.25;;;;;;;-145.06;0.00;60892.56;4725481;29;20041;-89
2021/12/18 07:05:50;;;;;;;11.48;6.45;;;;;;;-145.06;0.00;60892.56;4725065;29;20041;-88
2021/12/18 07:08:29;;;;;;;9.43;5.70;;;;;;;-145.06;0.00;60892.56;4721838;29;20036;-87
2021/12/18 07:11:08;;;;;;;8.60;4.93;;;;;;;-145.06;0.00;60892.56;4725914;29;20037;-87
2021/12/18 07:13:46;;;;;;;9.38;5.28;;;;;;;-145.06;0.00;60892.56;4737883;29;20025;-88
2021/12/18 07:16:25;;;;;;;10.23;5.68;;;;;;;-145.06;0.00;60892.56;4744608;29;20028;-88
2021/12/18 07:19:05;;;;;;;11.52;6.45;;;;;;;-145.06;0.00;60892.56;4712982;29;20040;-86
2021/12/18 07:21:43;;;;;;;13.30;7.23;;;;;;;-145.06;0.00;60892.56;4715077;29;20028;-87
2021/12/18 07:24:22;;;;;;;12.63;6.05;;;;;;;-145.06;0.00;60892.56;4722366;29;20277;-87
2021/12/18 07:27:02;;;;;;;10.53;5.67;;;;;;;-145.06;0.00;60892.56;4716242;29;20036;-87
2021/12/18 07:29:41;;;;;;;10.15;5.68;;;;;;;-145.06;0.00;60892.56;4717947;29;20037;-87
2021/12/18 07:32:20;;;;;;;11.43;5.57;;;;;;;-145.06;0.00;60892.56;4720539;29;20045;-87
2021/12/18 07:34:59;;;;;;;10.43;5.37;;;;;;;187.52;0.00;60892.56;4711660;29;20044;-86
2021/12/18 07:37:38;;;;;;;9.85;4.97;;;;;;;-145.06;0.00;60892.56;4726088;29;20032;-87
2021/12/18 07:40:17;;;;;;;9.37;5.43;;;;;;;-145.06;0.00;60892.56;4711051;29;20036;-88
2021/12/18 07:42:56;;;;;;;9.77;5.38;;;;;;;-145.06;0.00;60892.56;4710861;29;20766;-87
2021/12/18 07:45:35;;;;;;;15.07;6.60;;;;;;;-145.06;0.00;60892.56;4713018;29;20040;-87
2021/12/18 07:48:14;;;;;;;11.07;6.03;;;;;;;-145.06;0.00;60892.56;4723239;29;20032;-87
2021/12/18 07:50:53;;;;;;;14.37;7.40;;;;;;;-145.06;0.00;60892.56;4731619;29;20035;-87
2021/12/18 07:53:32;;;;;;;13.45;6.97;;;;;;;-145.06;0.00;60892.56;4710130;29;20781;-87
2021/12/18 07:56:28;;;;;;;12.68;6.47;;;;;;;-145.06;0.00;60892.56;4711354;29;20048;-87
2021/12/18 07:59:07;;;;;;;13.35;6.80;;;;;;;-145.06;0.00;60892.56;4714396;29;20112;-88
2021/12/18 08:01:46;;;;;;;13.77;6.80;;;;;;;-145.06;0.00;60892.56;4710715;29;20483;-87
2021/12/18 08:04:25;;;;;;;15.77;7.30;;;;;;;-145.06;0.00;60892.56;4726508;29;20040;-87
2021/12/18 08:07:04;;;;;;;13.70;6.72;;;;;;;-145.06;0.00;60892.56;4714701;29;20040;-87
2021/12/18 08:09:43;;;;;;;12.57;6.47;;;;;;;-145.06;0.00;60892.56;4714457;29;20486;-88
2021/12/18 08:12:22;;;;;;;11.07;5.63;;;;;;;-145.06;0.00;60892.56;4719992;29;20041;-87
2021/12/18 08:15:01;;;;;;;12.27;5.47;;;;;;;-145.06;0.00;60892.56;4723218;29;20053;-85
2021/12/18 08:17:43;;;;;;;11.35;5.60;;;;;;;-145.06;0.00;60892.56;4727570;29;20119;-86
2021/12/18 08:20:23;;;;;;;10.32;5.40;;;;;;;-145.06;0.00;60892.56;4710075;29;20025;-87
2021/12/18 08:23:03;;;;;;;10.65;5.22;;;;;;;-145.06;0.00;60892.56;4722951;29;20562;-86
2021/12/18 08:25:43;;;;;;;9.75;4.88;;;;;;;-145.06;0.00;60892.56;4709024;29;20028;-86
2021/12/18 08:28:21;;;;;;;13.50;6.63;;;;;;;-145.06;0.00;60892.56;4713275;29;20040;-87
2021/12/18 08:31:01;;;;;;;12.00;6.22;;;;;;;-145.06;0.00;60892.56;4713239;29;20059;-86
2021/12/18 08:33:40;;;;;;;11.57;5.93;;;;;;;187.52;0.00;60892.56;4712979;29;20021;-86
2021/12/18 08:36:19;;;;;;;12.97;6.27;;;;;;;-145.06;0.00;60892.56;4720526;29;20044;-86
2021/12/18 08:38:58;;;;;;;11.00;5.97;;;;;;;-145.06;0.00;60892.56;4718807;29;20052;-87
2021/12/18 08:41:39;;;;;;;10.88;5.70;;;;;;;-145.06;0.00;60892.56;4716034;29;20028;-87
2021/12/18 08:44:18;;;;;;;13.35;5.78;;;;;;;-145.06;0.00;60892.56;4706447;29;20032;-86
2021/12/18 08:46:57;;;;;;;13.37;5.73;;;;;;;-145.06;0.00;60892.56;4719155;29;20032;-86
2021/12/18 08:49:38;;;;;;;10.48;5.88;;;;;;;7.03;0.00;60892.56;4724166;29;20483;-88
2021/12/18 08:52:18;;;;;;;9.25;5.07;;;;;;;7.07;0.00;60892.56;4710278;29;20044;-87
2021/12/18 08:54:58;;;;;;;9.80;5.22;;;;;;;-145.06;0.00;60892.56;4714094;29;20044;-87
2021/12/18 08:57:37;;;;;;;10.02;5.18;;;;;;;7.07;0.00;60892.56;4717367;29;20033;-86
2021/12/18 09:00:23;;;;;;;10.65;5.07;;;;;;;7.11;0.00;60892.56;4710959;29;20040;-86
2021/12/18 09:03:02;;;;;;;10.18;4.82;;;;;;;7.08;0.00;60892.56;4713328;29;20044;-87
2021/12/18 09:05:41;;;;;;;10.38;4.97;;;;;;;7.10;0.00;60892.56;4724961;29;20052;-87
2021/12/18 09:08:20;;;;;;;8.45;4.30;;;;;;;-145.06;0.00;60892.56;4725119;29;20048;-86
2021/12/18 09:10:59;;;;;;;9.37;4.93;;;;;;;-145.06;0.00;60892.56;4709408;29;20049;-86
2021/12/18 09:13:39;;;;;;;9.27;4.70;;;;;;;-145.06;0.00;60892.56;4710838;29;20028;-87
2021/12/18 09:16:18;;;;;;;8.40;4.63;;;;;;;-145.06;0.00;60892.56;4724952;29;20044;-87
2021/12/18 09:18:58;;;;;;;8.13;4.00;;;;;;;21.08;0.00;60892.56;4711587;29;20056;-88
2021/12/18 09:21:37;;;;;;;6.25;3.95;;;;;;;-145.06;0.00;60892.56;4726032;29;20032;-86
2021/12/18 09:24:16;;;;;;;8.03;4.43;;;;;;;-145.06;0.00;60892.56;4721851;29;20055;-86
2021/12/18 09:26:55;;;;;;;7.60;4.37;;;;;;;-145.06;0.00;60892.56;4715142;29;20040;-87
2021/12/18 09:29:34;;;;;;;8.23;4.63;;;;;;;187.52;0.00;60892.56;4714118;29;20044;-86
2021/12/18 09:32:13;;;;;;;22.58;11.70;;;;;;;-145.06;0.00;60892.56;4712981;29;20107;-87
2021/12/18 09:34:52;;;;;;;22.70;12.33;;;;;;;187.52;0.00;60892.56;4714882;29;20048;-88
2021/12/18 09:37:31;;;;;;;19.70;11.20;;;;;;;-145.06;0.00;60892.56;4722602;29;20612;-87
2021/12/18 09:40:11;;;;;;;17.17;8.75;;;;;;;-145.06;0.00;60892.56;4725616;29;20028;-88
2021/12/18 09:42:50;;;;;;;13.13;7.07;;;;;;;-145.06;0.00;60892.56;4710471;29;20036;-86
2021/12/18 09:45:30;;;;;;;13.53;6.73;;;;;;;-145.06;0.00;60892.56;4711146;29;20118;-88
2021/12/18 09:48:09;;;;;;;11.68;6.07;;;;;;;-145.06;0.00;60892.56;4723719;29;20040;-87
2021/12/18 09:50:55;;;;;;;8.65;5.00;;;;;;;-145.06;0.00;60892.56;4713169;29;20045;-87
2021/12/18 09:53:35;;;;;;;7.88;4.70;;;;;;;-145.06;0.00;60892.56;4707257;29;20036;-87
2021/12/18 09:56:14;;;;;;;8.43;4.47;;;;;;;-145.06;0.00;60892.56;4727035;29;20036;-87
2021/12/18 09:58:53;;;;;;;8.05;4.55;;;;;;;-145.06;0.00;60892.56;4709236;29;20040;-87
2021/12/18 10:01:33;;;;;;;8.15;4.43;;;;;;;-145.06;0.00;60892.56;4710963;29;20033;-87
2021/12/18 10:04:32;;;;;;;;;;;;;;;-145.06;0.00;60892.56;4711561;29;20036;-88
2021/12/18 10:07:20;;;;;;;5.35;3.03;;;;;;;-145.06;0.00;60892.56;4705546;29;19916;-87
2021/12/18 10:10:00;;;;;;;5.70;2.92;;;;;;;-145.06;0.00;60892.56;4712210;29;20375;-87
2021/12/18 10:12:39;;;;;;;5.63;3.50;;;;;;;-145.06;0.00;60892.56;4708291;29;20033;-87
2021/12/18 10:15:18;;;;;;;6.68;3.55;;;;;;;-145.06;0.00;60892.56;4727417;29;20032;-88
2021/12/18 10:18:06;;;;;;;4.78;3.10;;;;;;;-145.06;0.00;60892.56;4712296;29;20064;-86
2021/12/18 10:20:46;;;;;;;5.55;3.42;;;;;;;-145.06;0.00;60892.56;4726231;29;20032;-87
2021/12/18 10:23:27;;;;;;;5.57;3.57;;;;;;;-145.06;0.00;60892.56;4722063;29;20028;-87
2021/12/18 10:26:07;;;;;;;5.60;3.03;;;;;;;-145.06;0.00;60892.56;4736636;29;20137;-88
2021/12/18 10:28:46;;;;;;;5.13;2.67;;;;;;;-145.06;0.00;60892.56;4724477;29;20040;-87
2021/12/18 10:31:43;;;;;;;5.18;3.33;;;;;;;-145.06;0.00;60892.56;4716898;29;20112;-87
2021/12/18 10:34:25;;;;;;;6.05;3.42;;;;;;;-145.06;0.00;60892.56;4727928;29;20037;-87
2021/12/18 10:37:14;;;;;;;4.32;2.88;;;;;;;-145.06;0.00;60892.56;4716916;29;20040;-87
2021/12/18 10:40:06;;;;;;;4.40;2.72;;;;;;;7.56;0.00;60892.56;4714491;29;20032;-87
2021/12/18 10:42:46;;;;;;;3.72;2.50;;;;;;;-145.06;0.00;60892.56;4717203;29;20028;-88
2021/12/18 10:45:25;;;;;;;4.88;2.92;;;;;;;-145.06;0.00;60892.56;4714486;29;20032;-88
2021/12/18 10:48:22;;;;;;;6.00;3.37;;;;;;;-145.06;0.00;60892.56;4714637;29;20070;-88
2021/12/18 10:51:02;;;;;;;4.72;2.70;;;;;;;-145.06;0.00;60892.56;4709420;29;20289;-87
2021/12/18 10:53:40;;;;;;;4.63;2.70;;;;;;;-145.06;0.00;60892.56;4724992;29;20037;-87
2021/12/18 10:56:40;;;;;;;4.60;2.80;;;;;;;-145.06;0.00;60892.56;4727889;29;20064;-88
2021/12/18 10:59:24;;;;;;;4.50;2.85;;;;;;;-145.06;0.00;60892.56;4726605;29;20032;-87
2021/12/18 11:02:15;;;;;;;3.90;2.38;;;;;;;-145.06;0.00;60892.56;4714108;29;20048;-88
2021/12/18 11:05:17;;;;;;;3.60;2.50;;;;;;;-145.06;0.00;60892.56;4712710;29;20024;-87
2021/12/18 11:08:11;;;;;;;3.78;2.30;;;;;;;-145.06;0.00;60892.56;4719978;29;20540;-87
2021/12/18 11:13:38;;;;;;;4.60;2.38;;;;;;;-145.06;0.00;60892.56;4710962;29;20033;-87
2021/12/18 11:13:59;;;;;;;3.35;2.30;;;;;;;-145.06;0.00;60892.56;4725490;29;20040;-86
2021/12/18 11:16:43;;;;;;;3.93;2.53;;;;;;;-145.06;0.00;60892.56;4715184;29;20681;-85
2021/12/18 11:19:25;;;;;;;3.10;2.13;;;;;;;-145.06;0.00;60892.56;4717128;29;20384;-87
2021/12/18 11:22:11;;;;;;;4.13;2.65;;;;;;;-145.06;0.00;60892.56;4714047;29;20048;-87
2021/12/18 11:25:04;;;;;;;5.15;3.00;;;;;;;-145.06;0.00;60892.56;4714377;29;20529;-89
2021/12/18 11:27:48;;;;;;;5.78;3.75;;;;;;;-145.06;0.00;60892.56;4717799;29;20032;-89
2021/12/18 11:30:27;;;;;;;9.55;5.47;;;;;;;-145.06;0.00;60892.56;4717902;29;20032;-88
2021/12/18 11:33:12;;;;;;;12.23;7.03;;;;;;;-145.06;0.00;60892.56;4714558;29;20115;-87
2021/12/18 11:35:51;;;;;;;11.45;6.57;;;;;;;-145.06;0.00;60892.56;4719376;29;20127;-89
2021/12/18 11:38:33;;;;;;;10.20;5.97;;;;;;;-145.06;0.00;60892.56;4721941;29;20197;-88
2021/12/18 11:41:15;;;;;;;11.77;6.60;;;;;;;-145.06;0.00;60892.56;4729152;29;20261;-88
2021/12/18 11:43:54;;;;;;;10.25;5.60;;;;;;;-145.06;0.00;60892.56;4728822;29;20036;-88
2021/12/18 11:46:37;;;;;;;16.40;9.83;;;;;;;-145.06;0.00;60892.56;4716469;29;20395;-87
2021/12/18 11:49:16;;;;;;;14.00;8.45;;;;;;;-145.06;0.00;60892.56;4714513;29;20037;-89
2021/12/18 11:52:04;;;;;;;11.13;6.30;;;;;;;-145.06;0.00;60892.56;4728903;29;20396;-86
2021/12/18 11:54:50;;;;;;;9.02;5.40;;;;;;;-145.06;0.00;60892.56;4726559;29;20040;-86
2021/12/18 11:57:51;;;;;;;8.45;4.40;;;;;;;-145.06;0.00;60892.56;4714912;29;20036;-88
2021/12/18 12:00:47;;;;;;;6.53;4.25;;;;;;;-145.06;0.00;60892.56;4709981;29;20028;-88
2021/12/18 12:03:38;;;;;;;6.07;3.88;;;;;;;-145.06;0.00;60892.56;4721334;29;20036;-87
2021/12/18 12:06:33;;;;;;;5.68;3.63;;;;;;;-145.06;0.00;60892.56;4723349;29;20044;-87
2021/12/18 12:12:10;;;;;;;5.15;2.85;;;;;;;-145.06;0.00;60892.56;4725409;29;20040;-87
2021/12/18 12:14:49;;;;;;;5.82;3.20;;;;;;;-145.06;0.00;60892.56;4724408;29;20036;-88
2021/12/18 12:17:29;;;;;;;4.90;3.30;;;;;;;-145.06;0.00;60892.56;4713239;29;20036;-88
2021/12/18 12:20:08;;;;;;;5.87;3.47;;;;;;;-145.06;0.00;60892.56;4712434;29;20723;-88
2021/12/18 12:22:52;;;;;;;5.90;3.20;;;;;;;-145.06;0.00;60892.56;4713395;29;20037;-87
2021/12/18 12:25:49;;;;;;;5.38;3.40;;;;;;;-145.06;0.00;60892.56;4712279;29;20041;-88
2021/12/18 12:28:28;;;;;;;4.88;2.72;;;;;;;-145.06;0.00;60892.56;4712484;29;20662;-88
2021/12/18 12:31:12;;;;;;;3.70;2.50;;;;;;;-145.06;0.00;60892.56;4711021;29;20032;-89
2021/12/18 12:33:52;;;;;;;3.40;2.33;;;;;;;-145.06;0.00;60892.56;4711770;29;20036;-89
2021/12/18 12:36:31;;;;;;;3.90;2.63;;;;;;;-145.06;0.00;60892.56;4717147;29;20024;-89
2021/12/18 12:39:10;;;;;;;3.58;2.35;;;;;;;-145.06;0.00;60892.56;4712779;29;20032;-87
2021/12/18 12:41:51;;;;;;;4.00;2.40;;;;;;;7.79;0.00;60892.56;4712491;29;20024;-89
2021/12/18 12:44:37;;;;;;;3.70;2.47;;;;;;;7.79;0.00;60892.56;4710318;29;20048;-88
2021/12/18 12:47:19;;;;;;;4.05;2.60;;;;;;;7.81;0.00;60892.56;4712267;29;20032;-89
2021/12/18 12:50:09;;;;;;;6.55;2.70;;;;;;;-145.06;0.00;60892.56;4711696;29;20390;-87
2021/12/18 12:52:53;;;;;;;4.05;2.45;;;;;;;7.79;0.00;60892.56;4710024;29;20119;-87
2021/12/18 12:55:45;;;;;;;4.47;2.90;;;;;;;7.92;0.00;60892.56;4711725;29;20032;-87
2021/12/18 12:58:25;;;;;;;5.28;2.78;;;;;;;7.78;0.00;60892.56;4715496;29;20059;-88
2021/12/18 13:01:05;;;;;;;4.10;2.70;;;;;;;-145.06;0.00;60892.56;4723054;29;20037;-88
2021/12/18 13:03:47;;;;;;;4.80;2.92;;;;;;;-145.06;0.00;60892.56;4710465;29;20041;-89
2021/12/18 13:06:26;;;;;;;4.20;2.58;;;;;;;-145.06;0.00;60892.56;4723675;29;20041;-88